sensor_id;sensor_type;location;lat;lon;timestamp;P1;durP1;ratioP1;P2;durP2;ratioP2
11344;SDS011;5727;42.600;23.028;2022-10-16T00:01:04;22.27;;;13.83;;
11344;SDS011;5727;42.600;23.028;2022-10-16T00:03:31;23.27;;;14.33;;
11344;SDS011;5727;42.600;23.028;2022-10-16T00:05:58;22.37;;;15.03;;
11344;SDS011;5727;42.600;23.028;2022-10-16T00:08:26;21.30;;;14.13;;
11344;SDS011;5727;42.600;23.028;2022-10-16T00:10:58;26.57;;;14.40;;
11344;SDS011;5727;42.600;23.028;2022-10-16T00:13:25;23.77;;;14.53;;
11344;SDS011;5727;42.600;23.028;2022-10-16T00:15:55;20.00;;;13.73;;
11344;SDS011;5727;42.600;23.028;2022-10-16T00:18:24;21.33;;;13.57;;
11344;SDS011;5727;42.600;23.028;2022-10-16T00:20:51;21.13;;;13.03;;
11344;SDS011;5727;42.600;23.028;2022-10-16T00:23:18;18.87;;;12.97;;
11344;SDS011;5727;42.600;23.028;2022-10-16T00:25:54;22.67;;;13.17;;
11344;SDS011;5727;42.600;23.028;2022-10-16T00:28:22;18.20;;;12.17;;
11344;SDS011;5727;42.600;23.028;2022-10-16T00:30:49;19.53;;;13.23;;
11344;SDS011;5727;42.600;23.028;2022-10-16T00:33:17;16.50;;;13.00;;
11344;SDS011;5727;42.600;23.028;2022-10-16T00:35:44;18.77;;;13.40;;
11344;SDS011;5727;42.600;23.028;2022-10-16T00:38:11;16.73;;;12.33;;
11344;SDS011;5727;42.600;23.028;2022-10-16T00:40:38;19.47;;;14.37;;
11344;SDS011;5727;42.600;23.028;2022-10-16T00:43:08;18.37;;;12.23;;
11344;SDS011;5727;42.600;23.028;2022-10-16T00:45:39;21.40;;;13.57;;
11344;SDS011;5727;42.600;23.028;2022-10-16T00:48:06;14.57;;;11.57;;
11344;SDS011;5727;42.600;23.028;2022-10-16T00:50:40;17.80;;;12.57;;
11344;SDS011;5727;42.600;23.028;2022-10-16T00:53:08;18.83;;;12.93;;
11344;SDS011;5727;42.600;23.028;2022-10-16T00:55:37;22.23;;;14.07;;
11344;SDS011;5727;42.600;23.028;2022-10-16T00:58:03;18.93;;;12.50;;
11344;SDS011;5727;42.600;23.028;2022-10-16T01:00:30;23.70;;;13.60;;
11344;SDS011;5727;42.600;23.028;2022-10-16T01:02:58;21.60;;;12.57;;
11344;SDS011;5727;42.600;23.028;2022-10-16T01:05:30;21.90;;;13.30;;
11344;SDS011;5727;42.600;23.028;2022-10-16T01:08:03;17.60;;;12.10;;
11344;SDS011;5727;42.600;23.028;2022-10-16T01:10:35;22.20;;;13.13;;
11344;SDS011;5727;42.600;23.028;2022-10-16T01:13:05;22.20;;;13.23;;
11344;SDS011;5727;42.600;23.028;2022-10-16T01:15:35;18.50;;;12.90;;
11344;SDS011;5727;42.600;23.028;2022-10-16T01:18:07;22.83;;;12.57;;
11344;SDS011;5727;42.600;23.028;2022-10-16T01:20:39;21.83;;;12.60;;
11344;SDS011;5727;42.600;23.028;2022-10-16T01:23:18;15.37;;;11.63;;
11344;SDS011;5727;42.600;23.028;2022-10-16T01:26:14;22.13;;;12.17;;
11344;SDS011;5727;42.600;23.028;2022-10-16T01:28:56;15.53;;;12.50;;
11344;SDS011;5727;42.600;23.028;2022-10-16T01:31:31;19.70;;;12.30;;
11344;SDS011;5727;42.600;23.028;2022-10-16T01:34:03;19.93;;;12.13;;
11344;SDS011;5727;42.600;23.028;2022-10-16T01:36:37;18.93;;;12.73;;
11344;SDS011;5727;42.600;23.028;2022-10-16T01:39:08;20.60;;;13.17;;
11344;SDS011;5727;42.600;23.028;2022-10-16T01:41:37;18.57;;;13.13;;
11344;SDS011;5727;42.600;23.028;2022-10-16T01:44:10;21.07;;;12.90;;
11344;SDS011;5727;42.600;23.028;2022-10-16T01:46:41;19.73;;;13.47;;
11344;SDS011;5727;42.600;23.028;2022-10-16T01:49:11;26.90;;;14.13;;
11344;SDS011;5727;42.600;23.028;2022-10-16T01:51:39;18.43;;;12.77;;
11344;SDS011;5727;42.600;23.028;2022-10-16T01:54:08;19.33;;;15.97;;
11344;SDS011;5727;42.600;23.028;2022-10-16T01:56:35;23.87;;;14.73;;
11344;SDS011;5727;42.600;23.028;2022-10-16T01:59:05;20.10;;;13.63;;
11344;SDS011;5727;42.600;23.028;2022-10-16T02:01:37;21.20;;;13.43;;
11344;SDS011;5727;42.600;23.028;2022-10-16T02:04:09;16.33;;;12.80;;
11344;SDS011;5727;42.600;23.028;2022-10-16T02:06:39;18.27;;;11.97;;
11344;SDS011;5727;42.600;23.028;2022-10-16T02:09:06;26.60;;;12.50;;
11344;SDS011;5727;42.600;23.028;2022-10-16T02:11:33;19.23;;;11.70;;
11344;SDS011;5727;42.600;23.028;2022-10-16T02:14:01;26.10;;;12.03;;
11344;SDS011;5727;42.600;23.028;2022-10-16T02:16:33;23.30;;;12.43;;
11344;SDS011;5727;42.600;23.028;2022-10-16T02:19:05;17.07;;;11.57;;
11344;SDS011;5727;42.600;23.028;2022-10-16T02:21:33;19.87;;;12.60;;
11344;SDS011;5727;42.600;23.028;2022-10-16T02:24:08;28.60;;;13.00;;
11344;SDS011;5727;42.600;23.028;2022-10-16T02:26:42;18.97;;;11.60;;
11344;SDS011;5727;42.600;23.028;2022-10-16T02:29:13;19.80;;;10.80;;
11344;SDS011;5727;42.600;23.028;2022-10-16T02:31:45;22.10;;;12.67;;
11344;SDS011;5727;42.600;23.028;2022-10-16T02:34:18;20.47;;;12.53;;
11344;SDS011;5727;42.600;23.028;2022-10-16T02:36:48;22.23;;;11.87;;
11344;SDS011;5727;42.600;23.028;2022-10-16T02:39:16;17.03;;;11.43;;
11344;SDS011;5727;42.600;23.028;2022-10-16T02:41:44;21.87;;;12.00;;
11344;SDS011;5727;42.600;23.028;2022-10-16T02:44:11;22.87;;;12.10;;
11344;SDS011;5727;42.600;23.028;2022-10-16T02:46:38;23.87;;;12.07;;
11344;SDS011;5727;42.600;23.028;2022-10-16T02:49:05;17.67;;;12.30;;
11344;SDS011;5727;42.600;23.028;2022-10-16T02:51:33;20.93;;;11.97;;
11344;SDS011;5727;42.600;23.028;2022-10-16T02:53:59;17.80;;;12.07;;
11344;SDS011;5727;42.600;23.028;2022-10-16T02:56:26;20.13;;;12.20;;
11344;SDS011;5727;42.600;23.028;2022-10-16T02:58:53;21.53;;;12.13;;
11344;SDS011;5727;42.600;23.028;2022-10-16T03:01:20;18.33;;;12.33;;
11344;SDS011;5727;42.600;23.028;2022-10-16T03:03:46;16.97;;;12.13;;
11344;SDS011;5727;42.600;23.028;2022-10-16T03:06:13;16.90;;;12.00;;
11344;SDS011;5727;42.600;23.028;2022-10-16T03:08:41;18.33;;;12.00;;
11344;SDS011;5727;42.600;23.028;2022-10-16T03:11:08;15.30;;;11.33;;
11344;SDS011;5727;42.600;23.028;2022-10-16T03:13:35;14.67;;;10.77;;
11344;SDS011;5727;42.600;23.028;2022-10-16T03:16:02;18.47;;;12.37;;
11344;SDS011;5727;42.600;23.028;2022-10-16T03:18:28;20.00;;;12.13;;
11344;SDS011;5727;42.600;23.028;2022-10-16T03:20:55;20.13;;;11.87;;
11344;SDS011;5727;42.600;23.028;2022-10-16T03:23:22;16.83;;;11.60;;
11344;SDS011;5727;42.600;23.028;2022-10-16T03:25:50;17.53;;;11.27;;
11344;SDS011;5727;42.600;23.028;2022-10-16T03:28:17;16.87;;;12.00;;
11344;SDS011;5727;42.600;23.028;2022-10-16T03:30:44;14.80;;;11.90;;
11344;SDS011;5727;42.600;23.028;2022-10-16T03:33:11;18.57;;;12.40;;
11344;SDS011;5727;42.600;23.028;2022-10-16T03:35:38;18.77;;;12.63;;
11344;SDS011;5727;42.600;23.028;2022-10-16T03:38:04;18.53;;;12.93;;
11344;SDS011;5727;42.600;23.028;2022-10-16T03:40:31;19.27;;;13.17;;
11344;SDS011;5727;42.600;23.028;2022-10-16T03:42:59;18.10;;;12.63;;
11344;SDS011;5727;42.600;23.028;2022-10-16T03:45:26;15.63;;;11.97;;
11344;SDS011;5727;42.600;23.028;2022-10-16T03:47:53;17.03;;;11.93;;
11344;SDS011;5727;42.600;23.028;2022-10-16T03:50:19;18.93;;;13.00;;
11344;SDS011;5727;42.600;23.028;2022-10-16T03:52:46;15.03;;;12.20;;
11344;SDS011;5727;42.600;23.028;2022-10-16T03:55:13;20.67;;;12.37;;
11344;SDS011;5727;42.600;23.028;2022-10-16T03:57:39;21.23;;;12.97;;
11344;SDS011;5727;42.600;23.028;2022-10-16T04:00:08;19.90;;;11.80;;
11344;SDS011;5727;42.600;23.028;2022-10-16T04:02:36;17.23;;;12.93;;
11344;SDS011;5727;42.600;23.028;2022-10-16T04:05:03;17.87;;;12.73;;
11344;SDS011;5727;42.600;23.028;2022-10-16T04:07:31;16.63;;;12.17;;
11344;SDS011;5727;42.600;23.028;2022-10-16T04:09:57;17.20;;;12.77;;
11344;SDS011;5727;42.600;23.028;2022-10-16T04:12:25;14.13;;;12.43;;
11344;SDS011;5727;42.600;23.028;2022-10-16T04:14:52;17.30;;;12.20;;
11344;SDS011;5727;42.600;23.028;2022-10-16T04:17:20;23.47;;;14.23;;
11344;SDS011;5727;42.600;23.028;2022-10-16T04:19:46;18.93;;;12.07;;
11344;SDS011;5727;42.600;23.028;2022-10-16T04:22:13;19.87;;;12.57;;
11344;SDS011;5727;42.600;23.028;2022-10-16T04:24:40;21.00;;;13.33;;
11344;SDS011;5727;42.600;23.028;2022-10-16T04:27:07;16.73;;;12.47;;
11344;SDS011;5727;42.600;23.028;2022-10-16T04:29:33;19.13;;;12.70;;
11344;SDS011;5727;42.600;23.028;2022-10-16T04:32:00;20.03;;;12.47;;
11344;SDS011;5727;42.600;23.028;2022-10-16T04:34:28;16.07;;;12.63;;
11344;SDS011;5727;42.600;23.028;2022-10-16T04:36:55;19.90;;;14.37;;
11344;SDS011;5727;42.600;23.028;2022-10-16T04:39:22;17.53;;;13.30;;
11344;SDS011;5727;42.600;23.028;2022-10-16T04:41:48;22.77;;;14.73;;
11344;SDS011;5727;42.600;23.028;2022-10-16T04:44:15;34.37;;;15.67;;
11344;SDS011;5727;42.600;23.028;2022-10-16T04:46:42;25.13;;;14.80;;
11344;SDS011;5727;42.600;23.028;2022-10-16T04:49:09;27.27;;;16.13;;
11344;SDS011;5727;42.600;23.028;2022-10-16T04:51:37;29.37;;;15.97;;
11344;SDS011;5727;42.600;23.028;2022-10-16T04:54:04;29.77;;;16.00;;
11344;SDS011;5727;42.600;23.028;2022-10-16T04:56:30;26.50;;;15.70;;
11344;SDS011;5727;42.600;23.028;2022-10-16T04:58:57;25.23;;;14.63;;
11344;SDS011;5727;42.600;23.028;2022-10-16T05:01:24;24.77;;;15.07;;
11344;SDS011;5727;42.600;23.028;2022-10-16T05:03:51;24.60;;;16.20;;
11344;SDS011;5727;42.600;23.028;2022-10-16T05:06:17;21.63;;;14.90;;
11344;SDS011;5727;42.600;23.028;2022-10-16T05:08:46;23.57;;;15.67;;
11344;SDS011;5727;42.600;23.028;2022-10-16T05:11:12;20.53;;;15.17;;
11344;SDS011;5727;42.600;23.028;2022-10-16T05:13:39;24.67;;;16.10;;
11344;SDS011;5727;42.600;23.028;2022-10-16T05:16:06;21.80;;;14.77;;
11344;SDS011;5727;42.600;23.028;2022-10-16T05:18:32;45.97;;;18.73;;
11344;SDS011;5727;42.600;23.028;2022-10-16T05:20:59;24.77;;;15.70;;
11344;SDS011;5727;42.600;23.028;2022-10-16T05:23:26;63.77;;;21.00;;
11344;SDS011;5727;42.600;23.028;2022-10-16T05:25:55;42.13;;;16.90;;
11344;SDS011;5727;42.600;23.028;2022-10-16T05:28:23;24.27;;;15.77;;
11344;SDS011;5727;42.600;23.028;2022-10-16T05:30:50;26.17;;;16.00;;
11344;SDS011;5727;42.600;23.028;2022-10-16T05:33:16;21.27;;;15.90;;
11344;SDS011;5727;42.600;23.028;2022-10-16T05:35:45;27.73;;;16.17;;
11344;SDS011;5727;42.600;23.028;2022-10-16T05:38:12;26.53;;;15.93;;
11344;SDS011;5727;42.600;23.028;2022-10-16T05:40:39;20.80;;;15.73;;
11344;SDS011;5727;42.600;23.028;2022-10-16T05:43:07;25.30;;;15.77;;
11344;SDS011;5727;42.600;23.028;2022-10-16T05:45:34;25.57;;;17.40;;
11344;SDS011;5727;42.600;23.028;2022-10-16T05:48:00;30.23;;;21.00;;
11344;SDS011;5727;42.600;23.028;2022-10-16T05:50:27;37.83;;;24.20;;
11344;SDS011;5727;42.600;23.028;2022-10-16T05:52:54;31.67;;;23.97;;
11344;SDS011;5727;42.600;23.028;2022-10-16T05:55:21;29.07;;;21.70;;
11344;SDS011;5727;42.600;23.028;2022-10-16T05:57:47;22.33;;;18.23;;
11344;SDS011;5727;42.600;23.028;2022-10-16T06:00:15;26.77;;;19.43;;
11344;SDS011;5727;42.600;23.028;2022-10-16T06:02:42;27.50;;;20.07;;
11344;SDS011;5727;42.600;23.028;2022-10-16T06:05:09;25.70;;;18.53;;
11344;SDS011;5727;42.600;23.028;2022-10-16T06:07:36;29.27;;;20.37;;
11344;SDS011;5727;42.600;23.028;2022-10-16T06:10:03;34.17;;;19.80;;
11344;SDS011;5727;42.600;23.028;2022-10-16T06:12:31;33.47;;;20.03;;
11344;SDS011;5727;42.600;23.028;2022-10-16T06:14:57;33.57;;;21.77;;
11344;SDS011;5727;42.600;23.028;2022-10-16T06:17:25;34.03;;;20.73;;
11344;SDS011;5727;42.600;23.028;2022-10-16T06:19:52;32.47;;;20.37;;
11344;SDS011;5727;42.600;23.028;2022-10-16T06:22:19;29.60;;;20.40;;
11344;SDS011;5727;42.600;23.028;2022-10-16T06:24:46;31.63;;;19.67;;
11344;SDS011;5727;42.600;23.028;2022-10-16T06:27:14;35.60;;;20.13;;
11344;SDS011;5727;42.600;23.028;2022-10-16T06:29:41;35.27;;;18.00;;
11344;SDS011;5727;42.600;23.028;2022-10-16T06:32:08;29.93;;;17.90;;
11344;SDS011;5727;42.600;23.028;2022-10-16T06:34:36;29.90;;;17.83;;
11344;SDS011;5727;42.600;23.028;2022-10-16T06:37:05;38.37;;;19.67;;
11344;SDS011;5727;42.600;23.028;2022-10-16T06:39:31;39.53;;;20.47;;
11344;SDS011;5727;42.600;23.028;2022-10-16T06:41:58;29.57;;;19.37;;
11344;SDS011;5727;42.600;23.028;2022-10-16T06:44:25;36.43;;;18.27;;
11344;SDS011;5727;42.600;23.028;2022-10-16T06:46:52;31.90;;;18.73;;
11344;SDS011;5727;42.600;23.028;2022-10-16T06:49:18;29.73;;;19.90;;
11344;SDS011;5727;42.600;23.028;2022-10-16T06:51:48;31.77;;;19.43;;
11344;SDS011;5727;42.600;23.028;2022-10-16T06:54:15;32.10;;;19.00;;
11344;SDS011;5727;42.600;23.028;2022-10-16T06:56:42;30.07;;;18.77;;
11344;SDS011;5727;42.600;23.028;2022-10-16T06:59:09;29.70;;;18.23;;
11344;SDS011;5727;42.600;23.028;2022-10-16T07:01:36;21.43;;;16.10;;
11344;SDS011;5727;42.600;23.028;2022-10-16T07:04:03;25.67;;;15.80;;
11344;SDS011;5727;42.600;23.028;2022-10-16T07:06:31;25.37;;;15.97;;
11344;SDS011;5727;42.600;23.028;2022-10-16T07:09:02;20.03;;;13.97;;
11344;SDS011;5727;42.600;23.028;2022-10-16T07:11:31;20.20;;;13.53;;
11344;SDS011;5727;42.600;23.028;2022-10-16T07:13:59;17.40;;;11.87;;
11344;SDS011;5727;42.600;23.028;2022-10-16T07:16:26;22.87;;;12.60;;
11344;SDS011;5727;42.600;23.028;2022-10-16T07:18:54;21.33;;;12.53;;
11344;SDS011;5727;42.600;23.028;2022-10-16T07:21:23;24.30;;;12.43;;
11344;SDS011;5727;42.600;23.028;2022-10-16T07:23:52;22.30;;;12.70;;
11344;SDS011;5727;42.600;23.028;2022-10-16T07:26:20;17.87;;;12.20;;
11344;SDS011;5727;42.600;23.028;2022-10-16T07:28:48;21.87;;;12.93;;
11344;SDS011;5727;42.600;23.028;2022-10-16T07:31:15;19.67;;;12.17;;
11344;SDS011;5727;42.600;23.028;2022-10-16T07:33:44;16.33;;;12.57;;
11344;SDS011;5727;42.600;23.028;2022-10-16T07:36:13;18.10;;;12.47;;
11344;SDS011;5727;42.600;23.028;2022-10-16T07:38:41;14.97;;;11.27;;
11344;SDS011;5727;42.600;23.028;2022-10-16T07:41:09;19.70;;;12.17;;
11344;SDS011;5727;42.600;23.028;2022-10-16T07:43:39;16.23;;;11.20;;
11344;SDS011;5727;42.600;23.028;2022-10-16T07:46:06;17.20;;;11.97;;
11344;SDS011;5727;42.600;23.028;2022-10-16T07:48:33;20.67;;;13.63;;
11344;SDS011;5727;42.600;23.028;2022-10-16T07:51:01;18.33;;;10.73;;
11344;SDS011;5727;42.600;23.028;2022-10-16T07:53:29;13.50;;;10.80;;
11344;SDS011;5727;42.600;23.028;2022-10-16T07:55:57;15.93;;;10.27;;
11344;SDS011;5727;42.600;23.028;2022-10-16T07:58:24;16.63;;;10.00;;
11344;SDS011;5727;42.600;23.028;2022-10-16T08:00:53;16.53;;;10.77;;
11344;SDS011;5727;42.600;23.028;2022-10-16T08:03:19;12.33;;;9.80;;
11344;SDS011;5727;42.600;23.028;2022-10-16T08:05:46;15.77;;;10.23;;
11344;SDS011;5727;42.600;23.028;2022-10-16T08:08:13;15.00;;;10.20;;
11344;SDS011;5727;42.600;23.028;2022-10-16T08:10:41;15.37;;;10.20;;
11344;SDS011;5727;42.600;23.028;2022-10-16T08:13:08;16.73;;;10.60;;
11344;SDS011;5727;42.600;23.028;2022-10-16T08:15:35;14.87;;;8.93;;
11344;SDS011;5727;42.600;23.028;2022-10-16T08:18:04;13.73;;;9.70;;
11344;SDS011;5727;42.600;23.028;2022-10-16T08:20:31;11.90;;;8.60;;
11344;SDS011;5727;42.600;23.028;2022-10-16T08:22:59;13.77;;;8.13;;
11344;SDS011;5727;42.600;23.028;2022-10-16T08:25:26;14.63;;;8.30;;
11344;SDS011;5727;42.600;23.028;2022-10-16T08:27:53;12.50;;;8.27;;
11344;SDS011;5727;42.600;23.028;2022-10-16T08:30:21;15.23;;;8.13;;
11344;SDS011;5727;42.600;23.028;2022-10-16T08:32:49;14.27;;;7.83;;
11344;SDS011;5727;42.600;23.028;2022-10-16T08:35:18;8.63;;;7.73;;
11344;SDS011;5727;42.600;23.028;2022-10-16T08:37:44;10.43;;;7.97;;
11344;SDS011;5727;42.600;23.028;2022-10-16T08:40:15;15.20;;;7.60;;
11344;SDS011;5727;42.600;23.028;2022-10-16T08:42:52;15.17;;;8.43;;
11344;SDS011;5727;42.600;23.028;2022-10-16T08:45:37;11.67;;;7.80;;
11344;SDS011;5727;42.600;23.028;2022-10-16T08:48:33;12.43;;;7.67;;
11344;SDS011;5727;42.600;23.028;2022-10-16T08:51:08;10.57;;;7.23;;
11344;SDS011;5727;42.600;23.028;2022-10-16T08:53:40;12.83;;;7.40;;
11344;SDS011;5727;42.600;23.028;2022-10-16T08:56:10;9.40;;;7.73;;
11344;SDS011;5727;42.600;23.028;2022-10-16T08:58:37;10.67;;;7.03;;
11344;SDS011;5727;42.600;23.028;2022-10-16T09:01:04;10.53;;;6.90;;
11344;SDS011;5727;42.600;23.028;2022-10-16T09:07:00;10.50;;;7.30;;
11344;SDS011;5727;42.600;23.028;2022-10-16T09:09:39;11.57;;;6.97;;
11344;SDS011;5727;42.600;23.028;2022-10-16T09:12:16;11.17;;;7.30;;
11344;SDS011;5727;42.600;23.028;2022-10-16T09:14:55;10.27;;;6.73;;
11344;SDS011;5727;42.600;23.028;2022-10-16T09:17:32;12.70;;;6.80;;
11344;SDS011;5727;42.600;23.028;2022-10-16T09:20:20;9.37;;;6.27;;
11344;SDS011;5727;42.600;23.028;2022-10-16T09:23:00;9.33;;;6.93;;
11344;SDS011;5727;42.600;23.028;2022-10-16T09:25:38;11.97;;;7.07;;
11344;SDS011;5727;42.600;23.028;2022-10-16T09:28:07;9.40;;;6.57;;
11344;SDS011;5727;42.600;23.028;2022-10-16T09:30:35;11.23;;;6.27;;
11344;SDS011;5727;42.600;23.028;2022-10-16T09:33:04;8.17;;;6.40;;
11344;SDS011;5727;42.600;23.028;2022-10-16T09:35:35;13.67;;;6.70;;
11344;SDS011;5727;42.600;23.028;2022-10-16T09:38:05;9.27;;;6.53;;
11344;SDS011;5727;42.600;23.028;2022-10-16T09:40:34;10.77;;;5.73;;
11344;SDS011;5727;42.600;23.028;2022-10-16T09:43:05;11.90;;;6.47;;
11344;SDS011;5727;42.600;23.028;2022-10-16T09:45:43;8.93;;;5.80;;
11344;SDS011;5727;42.600;23.028;2022-10-16T09:48:23;8.43;;;5.73;;
11344;SDS011;5727;42.600;23.028;2022-10-16T09:50:56;12.07;;;6.07;;
11344;SDS011;5727;42.600;23.028;2022-10-16T09:53:24;10.33;;;5.10;;
11344;SDS011;5727;42.600;23.028;2022-10-16T09:56:03;9.67;;;5.57;;
11344;SDS011;5727;42.600;23.028;2022-10-16T09:58:31;9.37;;;5.97;;
11344;SDS011;5727;42.600;23.028;2022-10-16T10:00:59;6.60;;;5.57;;
11344;SDS011;5727;42.600;23.028;2022-10-16T10:03:33;9.23;;;5.50;;
11344;SDS011;5727;42.600;23.028;2022-10-16T10:06:05;8.10;;;5.60;;
11344;SDS011;5727;42.600;23.028;2022-10-16T10:08:51;6.80;;;5.00;;
11344;SDS011;5727;42.600;23.028;2022-10-16T10:17:10;5.90;;;3.97;;
11344;SDS011;5727;42.600;23.028;2022-10-16T10:19:40;5.13;;;3.63;;
11344;SDS011;5727;42.600;23.028;2022-10-16T10:22:17;4.20;;;3.20;;
11344;SDS011;5727;42.600;23.028;2022-10-16T10:24:55;4.40;;;3.10;;
11344;SDS011;5727;42.600;23.028;2022-10-16T10:27:24;4.40;;;3.37;;
11344;SDS011;5727;42.600;23.028;2022-10-16T10:29:59;5.17;;;2.50;;
11344;SDS011;5727;42.600;23.028;2022-10-16T10:32:34;3.47;;;2.60;;
11344;SDS011;5727;42.600;23.028;2022-10-16T10:35:14;3.73;;;2.90;;
11344;SDS011;5727;42.600;23.028;2022-10-16T10:37:51;6.23;;;2.87;;
11344;SDS011;5727;42.600;23.028;2022-10-16T10:40:34;4.10;;;2.73;;
11344;SDS011;5727;42.600;23.028;2022-10-16T10:43:13;4.43;;;2.53;;
11344;SDS011;5727;42.600;23.028;2022-10-16T10:45:51;3.00;;;2.73;;
11344;SDS011;5727;42.600;23.028;2022-10-16T10:48:26;3.50;;;2.77;;
11344;SDS011;5727;42.600;23.028;2022-10-16T10:51:15;3.93;;;2.50;;
11344;SDS011;5727;42.600;23.028;2022-10-16T10:53:50;3.07;;;2.40;;
11344;SDS011;5727;42.600;23.028;2022-10-16T10:56:30;3.37;;;2.40;;
11344;SDS011;5727;42.600;23.028;2022-10-16T10:59:14;3.37;;;2.70;;
11344;SDS011;5727;42.600;23.028;2022-10-16T11:01:56;3.73;;;2.70;;
11344;SDS011;5727;42.600;23.028;2022-10-16T11:04:45;4.80;;;2.40;;
11344;SDS011;5727;42.600;23.028;2022-10-16T11:07:24;4.93;;;2.50;;
11344;SDS011;5727;42.600;23.028;2022-10-16T11:09:56;3.47;;;2.73;;
11344;SDS011;5727;42.600;23.028;2022-10-16T11:12:30;3.17;;;2.50;;
11344;SDS011;5727;42.600;23.028;2022-10-16T11:15:02;3.10;;;2.60;;
11344;SDS011;5727;42.600;23.028;2022-10-16T11:17:35;3.33;;;2.10;;
11344;SDS011;5727;42.600;23.028;2022-10-16T11:20:11;3.00;;;2.40;;
11344;SDS011;5727;42.600;23.028;2022-10-16T11:22:44;3.80;;;2.30;;
11344;SDS011;5727;42.600;23.028;2022-10-16T11:25:16;2.20;;;1.80;;
11344;SDS011;5727;42.600;23.028;2022-10-16T11:27:49;2.17;;;1.97;;
11344;SDS011;5727;42.600;23.028;2022-10-16T11:30:21;3.47;;;2.17;;
11344;SDS011;5727;42.600;23.028;2022-10-16T11:32:52;2.90;;;2.00;;
11344;SDS011;5727;42.600;23.028;2022-10-16T11:35:31;3.17;;;1.90;;
11344;SDS011;5727;42.600;23.028;2022-10-16T11:38:07;5.20;;;2.40;;
11344;SDS011;5727;42.600;23.028;2022-10-16T11:40:38;5.33;;;2.30;;
11344;SDS011;5727;42.600;23.028;2022-10-16T11:43:12;3.43;;;1.90;;
11344;SDS011;5727;42.600;23.028;2022-10-16T11:45:43;2.97;;;1.93;;
11344;SDS011;5727;42.600;23.028;2022-10-16T11:48:17;3.33;;;1.90;;
11344;SDS011;5727;42.600;23.028;2022-10-16T11:50:49;2.50;;;1.83;;
11344;SDS011;5727;42.600;23.028;2022-10-16T11:53:21;3.30;;;2.03;;
11344;SDS011;5727;42.600;23.028;2022-10-16T11:56:00;3.03;;;2.00;;
11344;SDS011;5727;42.600;23.028;2022-10-16T11:58:28;2.47;;;1.80;;
11344;SDS011;5727;42.600;23.028;2022-10-16T12:01:00;6.63;;;2.30;;
11344;SDS011;5727;42.600;23.028;2022-10-16T12:03:40;3.20;;;1.93;;
11344;SDS011;5727;42.600;23.028;2022-10-16T12:06:14;3.73;;;2.43;;
11344;SDS011;5727;42.600;23.028;2022-10-16T12:08:52;1.90;;;1.63;;
11344;SDS011;5727;42.600;23.028;2022-10-16T12:11:31;2.70;;;1.90;;
11344;SDS011;5727;42.600;23.028;2022-10-16T12:14:17;4.73;;;1.70;;
11344;SDS011;5727;42.600;23.028;2022-10-16T12:16:53;3.87;;;1.70;;
11344;SDS011;5727;42.600;23.028;2022-10-16T12:19:22;1.80;;;1.47;;
11344;SDS011;5727;42.600;23.028;2022-10-16T12:21:50;1.53;;;1.20;;
11344;SDS011;5727;42.600;23.028;2022-10-16T12:24:22;2.50;;;1.70;;
11344;SDS011;5727;42.600;23.028;2022-10-16T12:27:00;2.63;;;1.73;;
11344;SDS011;5727;42.600;23.028;2022-10-16T12:29:32;3.17;;;1.60;;
11344;SDS011;5727;42.600;23.028;2022-10-16T12:32:02;2.63;;;1.20;;
11344;SDS011;5727;42.600;23.028;2022-10-16T12:34:32;2.53;;;1.33;;
11344;SDS011;5727;42.600;23.028;2022-10-16T12:37:12;2.67;;;1.20;;
11344;SDS011;5727;42.600;23.028;2022-10-16T12:39:44;1.60;;;1.10;;
11344;SDS011;5727;42.600;23.028;2022-10-16T12:42:20;2.40;;;0.80;;
11344;SDS011;5727;42.600;23.028;2022-10-16T12:44:50;4.27;;;1.03;;
11344;SDS011;5727;42.600;23.028;2022-10-16T12:47:22;4.07;;;1.23;;
11344;SDS011;5727;42.600;23.028;2022-10-16T12:49:51;2.30;;;1.33;;
11344;SDS011;5727;42.600;23.028;2022-10-16T12:52:26;3.77;;;1.80;;
11344;SDS011;5727;42.600;23.028;2022-10-16T12:54:56;2.17;;;1.33;;
11344;SDS011;5727;42.600;23.028;2022-10-16T12:57:31;4.43;;;1.10;;
11344;SDS011;5727;42.600;23.028;2022-10-16T13:00:13;3.07;;;1.10;;
11344;SDS011;5727;42.600;23.028;2022-10-16T13:06:07;3.40;;;0.80;;
11344;SDS011;5727;42.600;23.028;2022-10-16T13:09:02;2.23;;;0.90;;
11344;SDS011;5727;42.600;23.028;2022-10-16T13:11:44;2.13;;;1.17;;
11344;SDS011;5727;42.600;23.028;2022-10-16T13:17:19;3.87;;;1.07;;
11344;SDS011;5727;42.600;23.028;2022-10-16T13:19:54;2.87;;;1.60;;
11344;SDS011;5727;42.600;23.028;2022-10-16T13:22:29;2.63;;;1.10;;
11344;SDS011;5727;42.600;23.028;2022-10-16T13:25:09;2.43;;;1.40;;
11344;SDS011;5727;42.600;23.028;2022-10-16T13:27:50;3.40;;;1.20;;
11344;SDS011;5727;42.600;23.028;2022-10-16T13:30:30;2.60;;;1.57;;
11344;SDS011;5727;42.600;23.028;2022-10-16T13:33:03;2.57;;;1.03;;
11344;SDS011;5727;42.600;23.028;2022-10-16T13:35:34;6.03;;;1.30;;
11344;SDS011;5727;42.600;23.028;2022-10-16T13:38:05;2.23;;;1.03;;
11344;SDS011;5727;42.600;23.028;2022-10-16T13:40:47;2.13;;;1.23;;
11344;SDS011;5727;42.600;23.028;2022-10-16T13:43:16;4.47;;;1.30;;
11344;SDS011;5727;42.600;23.028;2022-10-16T13:45:52;3.80;;;1.47;;
11344;SDS011;5727;42.600;23.028;2022-10-16T13:48:21;2.07;;;1.20;;
11344;SDS011;5727;42.600;23.028;2022-10-16T13:50:58;2.20;;;1.43;;
11344;SDS011;5727;42.600;23.028;2022-10-16T13:53:25;2.17;;;1.43;;
11344;SDS011;5727;42.600;23.028;2022-10-16T13:55:52;3.13;;;1.20;;
11344;SDS011;5727;42.600;23.028;2022-10-16T13:58:19;2.73;;;1.63;;
11344;SDS011;5727;42.600;23.028;2022-10-16T14:00:53;4.50;;;1.80;;
11344;SDS011;5727;42.600;23.028;2022-10-16T14:03:22;3.90;;;1.73;;
11344;SDS011;5727;42.600;23.028;2022-10-16T14:05:51;4.90;;;2.20;;
11344;SDS011;5727;42.600;23.028;2022-10-16T14:08:19;4.63;;;2.07;;
11344;SDS011;5727;42.600;23.028;2022-10-16T14:10:47;2.97;;;2.10;;
11344;SDS011;5727;42.600;23.028;2022-10-16T14:13:17;5.23;;;2.60;;
11344;SDS011;5727;42.600;23.028;2022-10-16T14:15:46;6.13;;;3.20;;
11344;SDS011;5727;42.600;23.028;2022-10-16T14:18:17;7.03;;;2.60;;
11344;SDS011;5727;42.600;23.028;2022-10-16T14:20:48;4.20;;;2.20;;
11344;SDS011;5727;42.600;23.028;2022-10-16T14:23:20;5.27;;;3.33;;
11344;SDS011;5727;42.600;23.028;2022-10-16T14:25:49;7.17;;;2.43;;
11344;SDS011;5727;42.600;23.028;2022-10-16T14:28:16;4.73;;;2.37;;
11344;SDS011;5727;42.600;23.028;2022-10-16T14:30:51;3.50;;;2.30;;
11344;SDS011;5727;42.600;23.028;2022-10-16T14:33:23;3.70;;;2.43;;
11344;SDS011;5727;42.600;23.028;2022-10-16T14:36:01;3.93;;;2.50;;
11344;SDS011;5727;42.600;23.028;2022-10-16T14:38:30;7.90;;;2.33;;
11344;SDS011;5727;42.600;23.028;2022-10-16T14:40:58;4.27;;;2.00;;
11344;SDS011;5727;42.600;23.028;2022-10-16T14:43:27;3.97;;;2.10;;
11344;SDS011;5727;42.600;23.028;2022-10-16T14:45:59;5.70;;;2.60;;
11344;SDS011;5727;42.600;23.028;2022-10-16T14:48:27;3.23;;;2.43;;
11344;SDS011;5727;42.600;23.028;2022-10-16T14:50:55;3.90;;;2.07;;
11344;SDS011;5727;42.600;23.028;2022-10-16T14:53:23;2.70;;;1.90;;
11344;SDS011;5727;42.600;23.028;2022-10-16T14:55:50;4.03;;;1.73;;
11344;SDS011;5727;42.600;23.028;2022-10-16T14:58:19;4.53;;;1.83;;
11344;SDS011;5727;42.600;23.028;2022-10-16T15:00:48;5.43;;;2.30;;
11344;SDS011;5727;42.600;23.028;2022-10-16T15:03:15;4.37;;;2.33;;
11344;SDS011;5727;42.600;23.028;2022-10-16T15:05:42;5.50;;;2.80;;